createdAt,value
2023-11-30T00:01:26.386Z,0.56
2023-11-30T00:03:54.665Z,0.59
2023-11-30T00:06:22.701Z,0.50
2023-11-30T00:08:51.065Z,0.69
2023-11-30T00:11:18.973Z,0.78
2023-11-30T00:13:47.087Z,0.62
2023-11-30T00:16:14.891Z,0.55
2023-11-30T00:18:42.930Z,0.70
2023-11-30T00:21:10.825Z,0.55
2023-11-30T00:23:38.795Z,0.53
2023-11-30T00:26:07.655Z,0.81
2023-11-30T00:28:37.492Z,0.77
2023-11-30T00:31:06.484Z,0.56
2023-11-30T00:33:34.423Z,0.58
2023-11-30T00:36:03.309Z,0.86
2023-11-30T00:38:31.421Z,0.88
2023-11-30T00:40:59.312Z,0.82
2023-11-30T00:43:27.244Z,1.06
2023-11-30T00:46:02.830Z,0.96
2023-11-30T00:48:38.077Z,0.93
2023-11-30T00:51:06.211Z,0.94
2023-11-30T00:53:34.200Z,1.10
2023-11-30T00:56:02.072Z,1.06
2023-11-30T00:58:30.612Z,0.84
2023-11-30T01:00:58.718Z,0.89
2023-11-30T01:03:27.183Z,0.84
2023-11-30T01:05:55.289Z,0.83
2023-11-30T01:08:23.335Z,0.91
2023-11-30T01:10:51.218Z,0.94
2023-11-30T01:13:20.046Z,1.05
2023-11-30T01:15:47.886Z,0.86
2023-11-30T01:18:15.950Z,0.85
2023-11-30T01:20:44.207Z,0.87
2023-11-30T01:23:12.418Z,1.07
2023-11-30T01:25:40.384Z,0.97
2023-11-30T01:28:08.518Z,1.13
2023-11-30T01:30:36.349Z,1.17
2023-11-30T01:33:04.335Z,1.18
2023-11-30T01:35:32.671Z,1.21
2023-11-30T01:38:00.648Z,1.18
2023-11-30T01:40:29.192Z,1.18
2023-11-30T01:42:57.058Z,1.17
2023-11-30T01:45:25.870Z,1.28
2023-11-30T01:47:54.677Z,1.19
2023-11-30T01:50:23.551Z,0.63
2023-11-30T01:52:51.589Z,0.84
2023-11-30T01:55:20.109Z,1.06
2023-11-30T01:57:48.064Z,0.96
2023-11-30T02:00:16.860Z,1.04
2023-11-30T02:02:45.862Z,1.01
2023-11-30T02:05:14.450Z,1.16
2023-11-30T02:07:42.356Z,1.26
2023-11-30T02:10:10.617Z,1.16
2023-11-30T02:12:38.491Z,1.24
2023-11-30T02:15:07.051Z,1.09
2023-11-30T02:17:35.086Z,1.24
2023-11-30T02:20:03.915Z,1.08
2023-11-30T02:22:31.802Z,1.21
2023-11-30T02:25:00.107Z,1.24
2023-11-30T02:27:28.133Z,1.19
2023-11-30T02:29:55.953Z,1.00
2023-11-30T02:32:23.990Z,0.92
2023-11-30T02:34:51.928Z,0.86
2023-11-30T02:37:19.852Z,0.82
2023-11-30T02:39:47.695Z,0.75
2023-11-30T02:42:15.952Z,0.85
2023-11-30T02:44:44.524Z,0.98
2023-11-30T02:47:12.709Z,0.97
2023-11-30T02:49:40.602Z,0.82
2023-11-30T02:52:08.449Z,0.96
2023-11-30T02:54:36.321Z,1.11
2023-11-30T02:57:04.723Z,0.77
2023-11-30T02:59:33.455Z,0.70
2023-11-30T03:02:01.488Z,0.66
2023-11-30T03:04:29.454Z,0.95
2023-11-30T03:06:57.483Z,0.71
2023-11-30T03:09:25.405Z,0.83
2023-11-30T03:11:53.385Z,1.00
2023-11-30T03:14:21.256Z,1.23
2023-11-30T03:16:49.338Z,1.27
2023-11-30T03:19:17.768Z,1.31
2023-11-30T03:21:46.162Z,1.31
2023-11-30T03:24:14.174Z,0.90
2023-11-30T03:26:42.209Z,1.01
2023-11-30T03:29:10.070Z,0.88
2023-11-30T03:31:40.707Z,0.99
2023-11-30T03:34:09.542Z,1.03
2023-11-30T03:36:37.596Z,0.98
2023-11-30T03:39:05.990Z,0.93
2023-11-30T03:41:34.115Z,0.85
2023-11-30T03:44:02.135Z,1.16
2023-11-30T03:46:30.463Z,1.27
2023-11-30T03:48:58.546Z,1.11
2023-11-30T03:51:26.450Z,1.13
2023-11-30T03:53:54.397Z,1.26
2023-11-30T03:56:22.225Z,1.18
2023-11-30T03:58:50.257Z,1.29
2023-11-30T04:01:25.214Z,1.11
2023-11-30T04:03:53.350Z,0.92
2023-11-30T04:06:25.182Z,0.93
2023-11-30T04:08:53.149Z,1.17
2023-11-30T04:11:21.115Z,1.05
2023-11-30T04:13:50.040Z,1.16
2023-11-30T04:16:19.660Z,1.00
2023-11-30T04:18:47.747Z,1.07
2023-11-30T04:21:15.880Z,1.03
2023-11-30T04:23:46.346Z,0.94
2023-11-30T04:26:14.737Z,0.96
2023-11-30T04:28:42.702Z,1.14
2023-11-30T04:31:10.710Z,0.91
2023-11-30T04:33:38.909Z,1.09
2023-11-30T04:36:07.428Z,1.27
2023-11-30T04:38:35.418Z,1.27
2023-11-30T04:41:03.324Z,1.20
2023-11-30T04:43:31.213Z,1.07
2023-11-30T04:45:59.268Z,1.19
2023-11-30T04:48:27.947Z,1.23
2023-11-30T04:50:55.777Z,1.16
2023-11-30T04:53:23.931Z,1.16
2023-11-30T04:55:52.072Z,1.27
2023-11-30T04:58:20.018Z,1.27
2023-11-30T05:00:49.135Z,1.34
2023-11-30T05:03:17.554Z,1.44
2023-11-30T05:05:45.663Z,1.42
2023-11-30T05:08:14.828Z,1.40
2023-11-30T05:10:43.006Z,1.42
2023-11-30T05:13:10.917Z,1.20
2023-11-30T05:15:39.940Z,1.15
2023-11-30T05:18:09.408Z,1.13
2023-11-30T05:20:37.451Z,1.20
2023-11-30T05:23:05.806Z,1.14
2023-11-30T05:25:33.949Z,0.96
2023-11-30T05:28:02.102Z,0.92
2023-11-30T05:30:30.299Z,1.11
2023-11-30T05:32:58.583Z,1.12
2023-11-30T05:35:26.471Z,1.24
2023-11-30T05:37:54.404Z,1.10
2023-11-30T05:40:22.891Z,1.33
2023-11-30T05:42:50.930Z,1.27
2023-11-30T05:45:18.865Z,1.17
2023-11-30T05:47:47.191Z,1.29
2023-11-30T05:50:15.457Z,0.87
2023-11-30T05:52:43.412Z,1.24
2023-11-30T05:55:11.967Z,1.30
2023-11-30T05:57:40.909Z,1.39
2023-11-30T06:00:11.604Z,1.35
2023-11-30T06:02:42.637Z,1.44
2023-11-30T06:05:10.913Z,1.45
2023-11-30T06:07:39.494Z,1.49
2023-11-30T06:10:11.174Z,1.42
2023-11-30T06:12:39.551Z,1.24
2023-11-30T06:15:07.997Z,1.28
2023-11-30T06:17:35.893Z,0.84
2023-11-30T06:20:08.105Z,0.97
2023-11-30T06:22:37.322Z,1.16
2023-11-30T06:25:06.260Z,1.30
2023-11-30T06:27:34.247Z,1.38
2023-11-30T06:30:02.227Z,1.15
2023-11-30T06:32:30.166Z,1.31
2023-11-30T06:34:58.001Z,1.21
2023-11-30T06:37:25.938Z,1.33
2023-11-30T06:39:53.840Z,1.43
2023-11-30T06:42:22.976Z,1.39
2023-11-30T06:44:50.924Z,1.27
2023-11-30T06:47:18.815Z,1.17
2023-11-30T06:49:48.402Z,1.33
2023-11-30T06:52:17.187Z,1.47
2023-11-30T06:54:45.112Z,1.57
2023-11-30T06:57:12.974Z,1.53
2023-11-30T06:59:40.827Z,1.59
2023-11-30T07:02:08.815Z,1.52
2023-11-30T07:04:36.881Z,1.53
2023-11-30T07:07:05.737Z,1.64
2023-11-30T07:09:33.821Z,1.12
2023-11-30T07:12:01.759Z,1.50
2023-11-30T07:14:29.710Z,1.46
2023-11-30T07:17:18.121Z,1.49
2023-11-30T07:19:45.955Z,1.51
2023-11-30T07:22:14.026Z,1.56
2023-11-30T07:24:41.963Z,1.55
2023-11-30T07:27:10.776Z,1.60
2023-11-30T07:29:39.307Z,1.66
2023-11-30T07:32:07.802Z,1.45
2023-11-30T07:34:37.474Z,1.60
2023-11-30T07:37:05.624Z,1.68
2023-11-30T07:39:34.105Z,1.68
2023-11-30T07:42:06.019Z,1.70
2023-11-30T07:44:36.590Z,1.66
2023-11-30T07:47:04.684Z,1.60
2023-11-30T07:49:32.631Z,1.55
2023-11-30T07:52:00.489Z,1.62
2023-11-30T07:54:28.598Z,1.78
2023-11-30T07:56:56.437Z,1.81
2023-11-30T07:59:24.526Z,1.70
2023-11-30T08:01:52.498Z,1.75
2023-11-30T08:04:20.560Z,1.67
2023-11-30T08:06:48.882Z,1.57
2023-11-30T08:09:18.058Z,1.76
2023-11-30T08:11:46.050Z,1.90
2023-11-30T08:14:14.172Z,1.96
2023-11-30T08:16:42.235Z,2.01
2023-11-30T08:19:10.310Z,2.10
2023-11-30T08:21:41.536Z,1.91
2023-11-30T08:24:10.877Z,1.93
2023-11-30T08:26:38.818Z,1.70
2023-11-30T08:29:06.821Z,1.98
2023-11-30T08:31:37.746Z,1.95
2023-11-30T08:34:05.839Z,1.87
2023-11-30T08:36:33.869Z,1.49
2023-11-30T08:39:03.995Z,1.99
2023-11-30T08:41:32.723Z,1.39
2023-11-30T08:44:00.593Z,2.04
2023-11-30T08:46:28.608Z,2.08
2023-11-30T08:48:56.935Z,1.97
2023-11-30T08:51:25.470Z,1.91
2023-11-30T08:53:53.594Z,1.88
2023-11-30T08:56:21.536Z,1.98
2023-11-30T08:58:49.434Z,1.98
2023-11-30T09:01:17.424Z,1.82
2023-11-30T09:03:46.205Z,1.90
2023-11-30T09:06:14.608Z,1.99
2023-11-30T09:08:42.581Z,1.91
2023-11-30T09:11:10.576Z,2.04
2023-11-30T09:13:38.955Z,2.09
2023-11-30T09:16:07.248Z,1.91
2023-11-30T09:18:35.269Z,1.97
2023-11-30T09:21:03.367Z,1.96
2023-11-30T09:23:31.455Z,1.81
2023-11-30T09:25:59.470Z,1.96
2023-11-30T09:28:27.783Z,1.78
2023-11-30T09:30:55.776Z,1.92
2023-11-30T09:33:31.266Z,2.04
2023-11-30T09:36:37.778Z,1.29
2023-11-30T09:39:45.736Z,2.06
2023-11-30T09:42:17.470Z,2.13
2023-11-30T09:44:45.627Z,2.05
2023-11-30T09:47:13.747Z,2.05
2023-11-30T09:49:41.791Z,2.07
2023-11-30T09:52:09.803Z,2.09
2023-11-30T09:54:37.886Z,2.07
2023-11-30T09:57:06.463Z,2.16
2023-11-30T09:59:34.364Z,2.12
2023-11-30T10:02:04.782Z,2.13
2023-11-30T10:04:34.645Z,2.06
2023-11-30T10:07:03.524Z,1.89
2023-11-30T10:09:32.149Z,2.19
2023-11-30T10:12:00.323Z,2.20
2023-11-30T10:14:28.321Z,2.19
2023-11-30T10:16:56.823Z,2.02
2023-11-30T10:19:24.911Z,2.08
2023-11-30T10:21:56.109Z,2.26
2023-11-30T10:24:25.394Z,2.27
2023-11-30T10:26:54.153Z,2.09
2023-11-30T10:29:23.165Z,2.11
2023-11-30T10:31:54.994Z,2.33
2023-11-30T10:34:26.609Z,2.19
2023-11-30T10:37:01.739Z,2.13
2023-11-30T10:39:38.192Z,2.15
2023-11-30T10:42:14.045Z,2.16
2023-11-30T10:44:42.940Z,2.21
2023-11-30T10:47:11.960Z,2.31
2023-11-30T10:49:45.199Z,2.06
2023-11-30T10:52:14.280Z,1.97
2023-11-30T10:54:50.685Z,2.17
2023-11-30T10:57:19.936Z,2.25
2023-11-30T10:59:49.211Z,2.32
2023-11-30T11:02:17.342Z,2.30
2023-11-30T11:04:45.389Z,2.37
2023-11-30T11:07:15.310Z,2.46
2023-11-30T11:09:43.615Z,2.28
2023-11-30T11:12:26.382Z,2.28
2023-11-30T11:15:15.729Z,2.25
2023-11-30T11:17:55.236Z,2.29
2023-11-30T11:20:28.504Z,2.41
2023-11-30T11:23:08.338Z,2.42
2023-11-30T11:25:42.868Z,2.46
2023-11-30T11:28:10.988Z,2.34
2023-11-30T11:30:44.197Z,2.23
2023-11-30T11:33:12.630Z,1.86
2023-11-30T11:35:40.809Z,2.43
2023-11-30T11:38:08.933Z,2.26
2023-11-30T11:40:40.364Z,2.13
2023-11-30T11:43:10.459Z,2.25
2023-11-30T11:45:38.991Z,2.50
2023-11-30T11:48:07.387Z,2.48
2023-11-30T11:50:35.435Z,2.42
2023-11-30T11:53:04.987Z,2.37
2023-11-30T11:55:33.195Z,2.49
2023-11-30T11:58:02.247Z,2.33
2023-11-30T12:00:31.067Z,2.40
2023-11-30T12:03:09.876Z,2.52
2023-11-30T12:05:48.275Z,2.61
2023-11-30T12:08:17.015Z,2.56
2023-11-30T12:10:48.159Z,2.47
2023-11-30T12:13:17.672Z,2.29
2023-11-30T12:15:47.799Z,2.08
2023-11-30T12:18:18.192Z,2.45
2023-11-30T12:20:49.372Z,2.60
2023-11-30T12:23:18.341Z,2.65
2023-11-30T12:25:46.302Z,2.64
2023-11-30T12:28:14.409Z,2.65
2023-11-30T12:30:42.638Z,2.53
2023-11-30T12:33:14.211Z,2.54
2023-11-30T12:35:43.304Z,2.24
2023-11-30T12:38:11.271Z,2.73
2023-11-30T12:40:39.320Z,2.63
2023-11-30T12:43:07.457Z,2.65
2023-11-30T12:45:35.622Z,2.63
2023-11-30T12:48:03.781Z,2.50
2023-11-30T12:50:32.273Z,2.66
2023-11-30T12:53:00.473Z,2.79
2023-11-30T12:55:28.635Z,2.83
2023-11-30T12:57:57.227Z,2.82
2023-11-30T13:00:26.852Z,2.78
2023-11-30T13:02:54.379Z,2.72
2023-11-30T13:05:22.710Z,2.60
2023-11-30T13:07:52.856Z,2.59
2023-11-30T13:10:21.967Z,2.62
2023-11-30T13:12:50.419Z,2.57
2023-11-30T13:15:18.826Z,2.64
2023-11-30T13:17:47.249Z,2.71
2023-11-30T13:20:15.964Z,2.47
2023-11-30T13:22:46.140Z,2.72
2023-11-30T13:25:17.744Z,2.67
2023-11-30T13:27:48.318Z,2.62
2023-11-30T13:30:18.565Z,2.82
2023-11-30T13:32:47.630Z,2.80
2023-11-30T13:35:16.082Z,2.61
2023-11-30T13:37:44.584Z,2.57
2023-11-30T13:40:13.221Z,2.83
2023-11-30T13:42:42.833Z,2.77
2023-11-30T13:45:11.229Z,2.80
2023-11-30T13:47:42.702Z,2.72
2023-11-30T13:50:20.664Z,2.78
2023-11-30T13:53:00.920Z,2.82
2023-11-30T13:55:30.219Z,2.91
2023-11-30T13:57:59.024Z,2.79
2023-11-30T14:00:27.287Z,2.83
2023-11-30T14:02:55.664Z,2.82
2023-11-30T14:05:23.986Z,2.78
2023-11-30T14:07:52.646Z,2.84
2023-11-30T14:10:20.852Z,2.79
2023-11-30T14:12:49.010Z,2.71
2023-11-30T14:15:17.550Z,2.70
2023-11-30T14:17:45.706Z,2.62
2023-11-30T14:20:13.846Z,2.58
2023-11-30T14:22:41.848Z,2.68
2023-11-30T14:25:11.407Z,2.71
2023-11-30T14:27:39.495Z,2.78
2023-11-30T14:30:10.774Z,2.72
2023-11-30T14:32:41.415Z,2.71
2023-11-30T14:35:11.259Z,2.65
2023-11-30T14:37:39.493Z,2.67
2023-11-30T14:40:12.061Z,2.48
2023-11-30T14:42:40.332Z,2.89
2023-11-30T14:45:11.557Z,2.76
2023-11-30T14:47:42.953Z,2.81
2023-11-30T14:50:12.112Z,2.73
2023-11-30T14:52:45.063Z,2.76
2023-11-30T14:55:14.668Z,2.66
2023-11-30T14:57:44.505Z,2.82
2023-11-30T15:00:16.205Z,2.77
2023-11-30T15:02:44.657Z,2.79
2023-11-30T15:05:15.591Z,2.80
2023-11-30T15:07:44.077Z,2.91
2023-11-30T15:10:13.214Z,2.71
2023-11-30T15:12:41.547Z,2.86
2023-11-30T15:15:14.619Z,2.88
2023-11-30T15:17:48.433Z,2.68
2023-11-30T15:20:20.119Z,2.87
2023-11-30T15:22:49.308Z,2.81
2023-11-30T15:25:19.942Z,2.74
2023-11-30T15:27:50.324Z,2.58
2023-11-30T15:30:19.150Z,2.55
2023-11-30T15:32:47.431Z,2.50
2023-11-30T15:35:16.403Z,2.25
2023-11-30T15:37:50.327Z,2.74
2023-11-30T15:40:21.544Z,2.55
2023-11-30T15:42:51.777Z,2.68
2023-11-30T15:45:23.066Z,2.52
2023-11-30T15:47:52.526Z,2.76
2023-11-30T15:50:20.865Z,2.57
2023-11-30T15:52:48.980Z,2.60
2023-11-30T15:55:17.217Z,2.66
2023-11-30T15:57:46.212Z,2.75
2023-11-30T16:00:15.042Z,2.75
2023-11-30T16:02:46.508Z,2.78
2023-11-30T16:05:15.540Z,2.83
2023-11-30T16:07:44.457Z,2.71
2023-11-30T16:10:13.032Z,2.59
2023-11-30T16:12:41.536Z,2.31
2023-11-30T16:15:11.684Z,2.63
2023-11-30T16:17:39.947Z,2.70
2023-11-30T16:20:12.079Z,2.61
2023-11-30T16:22:41.388Z,2.52
2023-11-30T16:25:12.418Z,2.54
2023-11-30T16:27:42.838Z,2.53
2023-11-30T16:30:12.322Z,2.65
2023-11-30T16:32:40.716Z,2.62
2023-11-30T16:35:09.466Z,2.68
2023-11-30T16:37:38.185Z,2.67
2023-11-30T16:40:08.429Z,2.63
2023-11-30T16:42:36.971Z,2.63
2023-11-30T16:45:07.369Z,2.63
2023-11-30T16:47:35.717Z,2.72
2023-11-30T16:50:05.094Z,2.76
2023-11-30T16:52:33.161Z,2.80
2023-11-30T16:55:01.652Z,2.84
2023-11-30T16:57:33.463Z,2.82
2023-11-30T17:00:04.655Z,2.97
2023-11-30T17:02:32.909Z,2.92
2023-11-30T17:05:01.231Z,2.99
2023-11-30T17:07:29.571Z,3.03
2023-11-30T17:09:58.678Z,2.97
2023-11-30T17:12:27.845Z,2.89
2023-11-30T17:14:58.996Z,2.72
2023-11-30T17:17:27.076Z,2.69
2023-11-30T17:19:55.165Z,2.24
2023-11-30T17:22:23.333Z,2.71
2023-11-30T17:24:51.861Z,2.80
2023-11-30T17:27:20.172Z,2.92
2023-11-30T17:29:48.368Z,2.90
2023-11-30T17:32:16.706Z,2.93
2023-11-30T17:34:45.119Z,2.89
2023-11-30T17:37:14.251Z,2.79
2023-11-30T17:39:42.440Z,2.84
2023-11-30T17:42:10.590Z,2.58
2023-11-30T17:44:38.798Z,2.86
2023-11-30T17:47:07.099Z,2.87
2023-11-30T17:49:37.252Z,2.87
2023-11-30T17:52:07.110Z,3.00
2023-11-30T17:54:35.329Z,2.95
2023-11-30T17:57:03.751Z,2.74
2023-11-30T17:59:31.762Z,2.92
2023-11-30T18:02:00.091Z,2.76
2023-11-30T18:04:28.551Z,2.76
2023-11-30T18:06:56.730Z,2.73
2023-11-30T18:09:27.622Z,2.77
2023-11-30T18:11:56.228Z,2.36
2023-11-30T18:14:32.441Z,2.92
2023-11-30T18:17:04.442Z,2.92
2023-11-30T18:19:32.648Z,2.97
2023-11-30T18:22:00.727Z,2.87
2023-11-30T18:24:31.613Z,2.95
2023-11-30T18:27:03.996Z,2.90
2023-11-30T18:29:32.458Z,2.77
2023-11-30T18:32:01.033Z,2.87
2023-11-30T18:34:29.237Z,2.84
2023-11-30T18:36:57.897Z,2.84
2023-11-30T18:39:26.367Z,2.82
2023-11-30T18:41:56.306Z,2.82
2023-11-30T18:44:25.090Z,2.49
2023-11-30T18:46:53.451Z,2.71
2023-11-30T18:49:21.678Z,2.96
2023-11-30T18:51:50.050Z,2.98
2023-11-30T18:54:19.695Z,3.10
2023-11-30T18:56:49.310Z,3.10
2023-11-30T18:59:17.424Z,2.98
2023-11-30T19:01:46.000Z,3.10
2023-11-30T19:04:14.473Z,3.05
2023-11-30T19:06:42.724Z,3.04
2023-11-30T19:09:10.828Z,2.90
2023-11-30T19:11:38.946Z,3.07
2023-11-30T19:14:07.103Z,3.05
2023-11-30T19:16:35.307Z,3.04
2023-11-30T19:19:03.899Z,3.10
2023-11-30T19:21:32.264Z,3.17
2023-11-30T19:24:00.365Z,2.95
2023-11-30T19:26:28.694Z,3.01
2023-11-30T19:28:58.736Z,3.01
2023-11-30T19:31:27.198Z,3.01
2023-11-30T19:33:55.383Z,2.96
2023-11-30T19:36:24.190Z,2.92
2023-11-30T19:38:52.311Z,2.87
2023-11-30T19:41:20.463Z,3.00
2023-11-30T19:43:48.868Z,3.00
2023-11-30T19:46:17.799Z,3.07
2023-11-30T19:48:46.305Z,3.13
2023-11-30T19:51:21.552Z,2.94
2023-11-30T19:53:52.307Z,3.00
2023-11-30T19:56:21.693Z,3.09
2023-11-30T19:58:49.740Z,3.08
2023-11-30T20:01:24.919Z,3.05
2023-11-30T20:03:53.199Z,3.08
2023-11-30T20:06:25.210Z,3.10
2023-11-30T20:08:53.293Z,2.91
2023-11-30T20:11:24.146Z,2.98
2023-11-30T20:13:52.372Z,2.79
2023-11-30T20:16:20.404Z,3.05
2023-11-30T20:18:48.511Z,3.02
2023-11-30T20:21:22.620Z,3.02
2023-11-30T20:23:51.052Z,2.95
2023-11-30T20:26:19.368Z,3.05
2023-11-30T20:28:48.961Z,3.03
2023-11-30T20:31:17.489Z,3.00
2023-11-30T20:33:47.105Z,2.93
2023-11-30T20:36:15.867Z,3.05
2023-11-30T20:38:45.272Z,2.95
2023-11-30T20:41:13.349Z,3.06
2023-11-30T20:43:41.457Z,2.99
2023-11-30T20:46:09.633Z,3.17
2023-11-30T20:48:38.030Z,3.16
2023-11-30T20:51:06.323Z,3.10
2023-11-30T20:53:34.716Z,2.71
2023-11-30T20:56:02.995Z,3.09
2023-11-30T20:58:31.243Z,3.19
2023-11-30T21:00:59.468Z,3.20
2023-11-30T21:03:27.855Z,3.20
2023-11-30T21:05:56.101Z,3.18
2023-11-30T21:08:24.122Z,3.21
2023-11-30T21:10:52.182Z,3.12
2023-11-30T21:13:20.664Z,3.13
2023-11-30T21:15:48.754Z,3.17
2023-11-30T21:18:17.051Z,3.22
2023-11-30T21:20:45.084Z,3.20
2023-11-30T21:23:13.342Z,3.10
2023-11-30T21:25:44.450Z,3.25
2023-11-30T21:28:14.372Z,3.17
2023-11-30T21:30:42.563Z,3.28
2023-11-30T21:33:11.143Z,3.02
2023-11-30T21:35:39.238Z,3.20
2023-11-30T21:38:07.226Z,3.28
2023-11-30T21:40:36.266Z,3.21
2023-11-30T21:43:05.891Z,2.99
2023-11-30T21:45:33.977Z,3.33
2023-11-30T21:48:02.674Z,3.32
2023-11-30T21:50:30.738Z,3.11
2023-11-30T21:52:59.066Z,3.16
2023-11-30T21:55:27.107Z,3.26
2023-11-30T21:57:55.567Z,3.31
2023-11-30T22:00:23.678Z,3.37
2023-11-30T22:02:51.896Z,3.27
2023-11-30T22:05:26.902Z,3.18
2023-11-30T22:08:01.172Z,3.50
2023-11-30T22:10:29.343Z,3.28
2023-11-30T22:12:57.650Z,3.46
2023-11-30T22:15:25.788Z,3.49
2023-11-30T22:17:54.021Z,3.41
2023-11-30T22:20:23.843Z,3.42
2023-11-30T22:22:51.966Z,3.13
2023-11-30T22:25:19.970Z,3.22
2023-11-30T22:27:48.172Z,3.33
2023-11-30T22:30:16.621Z,3.34
2023-11-30T22:32:44.771Z,3.31
2023-11-30T22:35:12.789Z,3.20
2023-11-30T22:37:40.851Z,3.38
2023-11-30T22:40:09.941Z,3.48
2023-11-30T22:42:38.081Z,3.49
2023-11-30T22:45:07.562Z,3.30
2023-11-30T22:47:37.204Z,3.40
2023-11-30T22:50:06.143Z,3.41
2023-11-30T22:52:34.847Z,3.47
2023-11-30T22:55:03.156Z,3.47
2023-11-30T22:57:31.435Z,3.49
2023-11-30T22:59:59.515Z,3.51
2023-11-30T23:02:28.670Z,3.11
2023-11-30T23:04:58.527Z,3.58
2023-11-30T23:07:25.830Z,3.45
2023-11-30T23:09:53.928Z,3.58
2023-11-30T23:12:22.084Z,3.60
2023-11-30T23:14:50.209Z,3.63
2023-11-30T23:17:20.078Z,3.60
2023-11-30T23:19:48.423Z,3.59
2023-11-30T23:22:16.910Z,3.60
2023-11-30T23:24:45.128Z,3.57
2023-11-30T23:27:13.395Z,3.47
2023-11-30T23:29:41.718Z,3.42
2023-11-30T23:32:10.202Z,3.63
2023-11-30T23:34:38.603Z,3.63
2023-11-30T23:37:07.029Z,3.66
2023-11-30T23:39:35.217Z,3.68
2023-11-30T23:42:03.665Z,3.62
2023-11-30T23:44:32.017Z,3.43
2023-11-30T23:47:00.553Z,3.57
2023-11-30T23:49:28.785Z,3.44
2023-11-30T23:51:56.946Z,3.63
2023-11-30T23:54:25.264Z,3.57
2023-11-30T23:56:53.474Z,3.59
2023-11-30T23:59:21.557Z,3.73
